sensor_id;sensor_type;location;lat;lon;timestamp;pressure;altitude;pressure_sealevel;temperature;humidity
47712;BME280;57457;51.634;5.886;2023-07-13T09:15:02;101400;;;21.0;68.9
47712;BME280;57457;51.634;5.886;2023-07-13T09:41:41;101400;;;22.2;66.9
47712;BME280;57457;51.634;5.886;2023-07-13T09:55:01;101400;;;22.0;67.1
47712;BME280;57457;51.634;5.886;2023-07-13T10:21:41;101400;;;22.4;59.0
47712;BME280;57457;51.634;5.886;2023-07-13T10:35:01;101400;;;22.8;60.4
47712;BME280;57457;51.634;5.886;2023-07-13T10:48:21;101400;;;23.2;56.1
47712;BME280;57457;51.634;5.886;2023-07-13T11:01:41;101400;;;23.6;59.1
47712;BME280;57457;51.634;5.886;2023-07-13T11:28:20;101400;;;23.2;62.0
47712;BME280;57457;51.634;5.886;2023-07-13T11:41:40;101400;;;22.8;62.6
47712;BME280;57457;51.634;5.886;2023-07-13T12:08:20;101400;;;23.9;64.5
47712;BME280;57457;51.634;5.886;2023-07-13T12:35:00;101400;;;23.3;67.5
47712;BME280;57457;51.634;5.886;2023-07-13T12:48:19;101400;;;23.2;67.8
47712;BME280;57457;51.634;5.886;2023-07-13T13:01:39;101400;;;22.9;67.0
47712;BME280;57457;51.634;5.886;2023-07-13T13:41:39;101400;;;24.3;57.3
47712;BME280;57457;51.634;5.886;2023-07-13T13:54:59;101400;;;24.7;56.8
47712;BME280;57457;51.634;5.886;2023-07-13T14:21:39;101400;;;23.6;64.1
47712;BME280;57457;51.634;5.886;2023-07-13T14:34:58;101400;;;23.1;64.8
47712;BME280;57457;51.634;5.886;2023-07-13T14:48:18;101400;;;22.8;64.0
47712;BME280;57457;51.634;5.886;2023-07-13T15:14:58;101400;;;22.7;55.6
47712;BME280;57457;51.634;5.886;2023-07-13T15:28:18;101400;;;23.1;56.3
47712;BME280;57457;51.634;5.886;2023-07-13T15:41:38;101400;;;23.5;60.8
47712;BME280;57457;51.634;5.886;2023-07-13T15:54:58;101400;;;23.7;60.7
47712;BME280;57457;51.634;5.886;2023-07-13T16:08:18;101400;;;23.6;62.7
47712;BME280;57457;51.634;5.886;2023-07-13T16:21:37;101400;;;23.5;60.6
47712;BME280;57457;51.634;5.886;2023-07-13T16:34:57;101400;;;23.7;58.9
47712;BME280;57457;51.634;5.886;2023-07-13T16:48:17;101400;;;23.9;58.6
47712;BME280;57457;51.634;5.886;2023-07-13T17:01:37;101400;;;24.2;59.1
47712;BME280;57457;51.634;5.886;2023-07-13T17:14:57;101400;;;24.5;59.9
47712;BME280;57457;51.634;5.886;2023-07-13T17:28:17;101400;;;24.2;62.1
47712;BME280;57457;51.634;5.886;2023-07-13T17:41:37;101400;;;23.7;63.1
47712;BME280;57457;51.634;5.886;2023-07-13T17:54:56;101400;;;23.2;65.7
47712;BME280;57457;51.634;5.886;2023-07-13T18:08:16;101400;;;22.6;67.6
47712;BME280;57457;51.634;5.886;2023-07-13T18:21:36;101400;;;22.1;69.9
47712;BME280;57457;51.634;5.886;2023-07-13T18:34:56;101500;;;21.7;73.5
47712;BME280;57457;51.634;5.886;2023-07-13T18:48:16;101500;;;21.5;71.3
47712;BME280;57457;51.634;5.886;2023-07-13T19:01:36;101500;;;21.2;70.5
47712;BME280;57457;51.634;5.886;2023-07-13T19:14:56;101500;;;20.9;73.3
47712;BME280;57457;51.634;5.886;2023-07-13T19:28:15;101500;;;20.7;73.7
47712;BME280;57457;51.634;5.886;2023-07-13T19:41:35;101500;;;20.4;76.4
47712;BME280;57457;51.634;5.886;2023-07-13T19:54:55;101500;;;20.2;77.3
47712;BME280;57457;51.634;5.886;2023-07-13T20:08:15;101500;;;19.9;76.7
47712;BME280;57457;51.634;5.886;2023-07-13T20:21:35;101500;;;19.6;76.8
47712;BME280;57457;51.634;5.886;2023-07-13T20:34:55;101500;;;19.3;77.3
47712;BME280;57457;51.634;5.886;2023-07-13T20:48:15;101500;;;19.0;77.5
47712;BME280;57457;51.634;5.886;2023-07-13T21:01:35;101500;;;18.8;78.0
47712;BME280;57457;51.634;5.886;2023-07-13T21:14:54;101500;;;18.7;78.1
47712;BME280;57457;51.634;5.886;2023-07-13T21:28:14;101500;;;18.5;78.8
47712;BME280;57457;51.634;5.886;2023-07-13T21:41:34;101500;;;18.2;80.0
47712;BME280;57457;51.634;5.886;2023-07-13T21:54:54;101500;;;17.8;80.5
47712;BME280;57457;51.634;5.886;2023-07-13T22:08:14;101500;;;17.7;81.0
47712;BME280;57457;51.634;5.886;2023-07-13T22:21:34;101500;;;17.6;80.9
47712;BME280;57457;51.634;5.886;2023-07-13T22:34:53;101500;;;17.7;81.1
47712;BME280;57457;51.634;5.886;2023-07-13T22:48:13;101500;;;17.7;80.9
47712;BME280;57457;51.634;5.886;2023-07-13T23:01:33;101500;;;17.8;81.4
47712;BME280;57457;51.634;5.886;2023-07-13T23:14:53;101500;;;17.7;81.9
47712;BME280;57457;51.634;5.886;2023-07-13T23:28:13;101500;;;17.6;82.3
47712;BME280;57457;51.634;5.886;2023-07-13T23:41:33;101500;;;17.5;82.6
47712;BME280;57457;51.634;5.886;2023-07-13T23:54:53;101500;;;17.5;82.7
